sensor_id;sensor_type;location;lat;lon;timestamp;P1;durP1;ratioP1;P2;durP2;ratioP2
44254;SDS011;29933;47.226;15.734;2022-08-26T00:04:51;10.45;;;6.25;;
44254;SDS011;29933;47.226;15.734;2022-08-26T00:08:41;8.38;;;5.95;;
44254;SDS011;29933;47.226;15.734;2022-08-26T00:12:03;12.98;;;6.10;;
44254;SDS011;29933;47.226;15.734;2022-08-26T00:14:55;7.53;;;5.47;;
44254;SDS011;29933;47.226;15.734;2022-08-26T00:18:01;7.18;;;5.72;;
44254;SDS011;29933;47.226;15.734;2022-08-26T00:21:07;12.15;;;5.57;;
44254;SDS011;29933;47.226;15.734;2022-08-26T00:24:29;10.00;;;5.97;;
44254;SDS011;29933;47.226;15.734;2022-08-26T00:27:58;12.35;;;5.85;;
44254;SDS011;29933;47.226;15.734;2022-08-26T00:30:52;8.23;;;5.40;;
44254;SDS011;29933;47.226;15.734;2022-08-26T00:34:04;6.82;;;5.30;;
44254;SDS011;29933;47.226;15.734;2022-08-26T00:37:33;5.53;;;4.20;;
44254;SDS011;29933;47.226;15.734;2022-08-26T00:40:27;11.55;;;7.10;;
44254;SDS011;29933;47.226;15.734;2022-08-26T00:43:56;7.65;;;5.60;;
44254;SDS011;29933;47.226;15.734;2022-08-26T00:46:31;6.53;;;5.47;;
44254;SDS011;29933;47.226;15.734;2022-08-26T00:49:45;9.05;;;5.95;;
44254;SDS011;29933;47.226;15.734;2022-08-26T00:55:10;8.73;;;5.13;;
44254;SDS011;29933;47.226;15.734;2022-08-26T00:58:39;6.82;;;4.50;;
44254;SDS011;29933;47.226;15.734;2022-08-26T01:02:09;7.07;;;5.57;;
44254;SDS011;29933;47.226;15.734;2022-08-26T01:05:46;8.27;;;5.30;;
44254;SDS011;29933;47.226;15.734;2022-08-26T01:09:14;8.77;;;5.25;;
44254;SDS011;29933;47.226;15.734;2022-08-26T01:12:32;6.80;;;4.88;;
44254;SDS011;29933;47.226;15.734;2022-08-26T01:15:50;8.65;;;5.60;;
44254;SDS011;29933;47.226;15.734;2022-08-26T01:19:17;7.03;;;5.43;;
44254;SDS011;29933;47.226;15.734;2022-08-26T01:22:38;6.65;;;6.00;;
44254;SDS011;29933;47.226;15.734;2022-08-26T01:26:00;6.93;;;5.20;;
44254;SDS011;29933;47.226;15.734;2022-08-26T01:29:11;8.05;;;6.22;;
44254;SDS011;29933;47.226;15.734;2022-08-26T01:32:13;9.52;;;5.65;;
44254;SDS011;29933;47.226;15.734;2022-08-26T01:35:26;10.32;;;5.82;;
44254;SDS011;29933;47.226;15.734;2022-08-26T01:40:50;6.55;;;5.85;;
44254;SDS011;29933;47.226;15.734;2022-08-26T01:44:17;8.73;;;6.90;;
44254;SDS011;29933;47.226;15.734;2022-08-26T01:47:39;12.98;;;6.10;;
44254;SDS011;29933;47.226;15.734;2022-08-26T01:50:28;11.13;;;5.93;;
44254;SDS011;29933;47.226;15.734;2022-08-26T01:53:49;7.93;;;5.65;;
44254;SDS011;29933;47.226;15.734;2022-08-26T01:56:46;8.82;;;5.55;;
44254;SDS011;29933;47.226;15.734;2022-08-26T01:59:30;6.47;;;5.53;;
44254;SDS011;29933;47.226;15.734;2022-08-26T02:02:51;8.57;;;5.82;;
44254;SDS011;29933;47.226;15.734;2022-08-26T02:06:03;7.68;;;5.28;;
44254;SDS011;29933;47.226;15.734;2022-08-26T02:09:00;6.75;;;5.90;;
44254;SDS011;29933;47.226;15.734;2022-08-26T02:11:52;9.68;;;5.75;;
44254;SDS011;29933;47.226;15.734;2022-08-26T02:14:23;5.13;;;4.40;;
44254;SDS011;29933;47.226;15.734;2022-08-26T02:20:37;7.07;;;4.47;;
44254;SDS011;29933;47.226;15.734;2022-08-26T02:24:16;10.77;;;5.55;;
44254;SDS011;29933;47.226;15.734;2022-08-26T02:27:31;9.95;;;5.22;;
44254;SDS011;29933;47.226;15.734;2022-08-26T02:30:33;9.23;;;5.55;;
44254;SDS011;29933;47.226;15.734;2022-08-26T02:33:22;8.60;;;5.40;;
44254;SDS011;29933;47.226;15.734;2022-08-26T02:36:10;8.35;;;5.53;;
44254;SDS011;29933;47.226;15.734;2022-08-26T02:39:16;6.07;;;5.40;;
44254;SDS011;29933;47.226;15.734;2022-08-26T02:42:09;9.77;;;6.47;;
44254;SDS011;29933;47.226;15.734;2022-08-26T02:45:14;5.78;;;5.05;;
44254;SDS011;29933;47.226;15.734;2022-08-26T02:48:23;7.47;;;5.23;;
44254;SDS011;29933;47.226;15.734;2022-08-26T02:52:09;10.13;;;5.78;;
44254;SDS011;29933;47.226;15.734;2022-08-26T02:54:59;9.05;;;5.53;;
44254;SDS011;29933;47.226;15.734;2022-08-26T02:57:35;7.43;;;5.30;;
44254;SDS011;29933;47.226;15.734;2022-08-26T03:00:21;11.07;;;5.50;;
44254;SDS011;29933;47.226;15.734;2022-08-26T03:02:57;9.18;;;5.78;;
44254;SDS011;29933;47.226;15.734;2022-08-26T03:05:55;8.65;;;6.13;;
44254;SDS011;29933;47.226;15.734;2022-08-26T03:08:27;10.23;;;5.82;;
44254;SDS011;29933;47.226;15.734;2022-08-26T03:11:12;7.57;;;5.93;;
44254;SDS011;29933;47.226;15.734;2022-08-26T03:14:41;10.95;;;5.95;;
44254;SDS011;29933;47.226;15.734;2022-08-26T03:48:18;7.43;;;4.70;;
44254;SDS011;29933;47.226;15.734;2022-08-26T03:51:02;7.63;;;6.68;;
44254;SDS011;29933;47.226;15.734;2022-08-26T03:53:48;6.95;;;5.60;;
44254;SDS011;29933;47.226;15.734;2022-08-26T03:56:34;6.80;;;5.70;;
44254;SDS011;29933;47.226;15.734;2022-08-26T03:59:07;6.13;;;4.60;;
44254;SDS011;29933;47.226;15.734;2022-08-26T04:01:40;6.78;;;5.22;;
44254;SDS011;29933;47.226;15.734;2022-08-26T04:04:49;11.70;;;5.40;;
44254;SDS011;29933;47.226;15.734;2022-08-26T04:07:19;7.70;;;6.70;;
44254;SDS011;29933;47.226;15.734;2022-08-26T04:10:09;9.75;;;5.32;;
44254;SDS011;29933;47.226;15.734;2022-08-26T04:12:39;5.43;;;4.82;;
44254;SDS011;29933;47.226;15.734;2022-08-26T04:15:30;6.53;;;4.82;;
44254;SDS011;29933;47.226;15.734;2022-08-26T04:18:18;9.00;;;6.20;;
44254;SDS011;29933;47.226;15.734;2022-08-26T04:20:57;8.13;;;6.03;;
44254;SDS011;29933;47.226;15.734;2022-08-26T04:23:36;9.38;;;5.07;;
44254;SDS011;29933;47.226;15.734;2022-08-26T04:26:32;6.10;;;5.38;;
44254;SDS011;29933;47.226;15.734;2022-08-26T04:31:38;6.28;;;4.60;;
44254;SDS011;29933;47.226;15.734;2022-08-26T04:34:47;6.38;;;5.28;;
44254;SDS011;29933;47.226;15.734;2022-08-26T04:40:22;15.15;;;6.28;;
44254;SDS011;29933;47.226;15.734;2022-08-26T04:45:28;7.85;;;5.95;;
44254;SDS011;29933;47.226;15.734;2022-08-26T04:48:24;9.80;;;7.25;;
44254;SDS011;29933;47.226;15.734;2022-08-26T04:50:57;8.27;;;5.93;;
44254;SDS011;29933;47.226;15.734;2022-08-26T04:53:46;8.68;;;6.35;;
44254;SDS011;29933;47.226;15.734;2022-08-26T04:56:17;6.55;;;5.65;;
44254;SDS011;29933;47.226;15.734;2022-08-26T04:59:15;10.65;;;6.05;;
44254;SDS011;29933;47.226;15.734;2022-08-26T05:02:52;7.57;;;5.40;;
44254;SDS011;29933;47.226;15.734;2022-08-26T05:05:30;8.43;;;5.38;;
44254;SDS011;29933;47.226;15.734;2022-08-26T05:08:00;6.68;;;5.53;;
44254;SDS011;29933;47.226;15.734;2022-08-26T05:10:30;9.32;;;5.45;;
44254;SDS011;29933;47.226;15.734;2022-08-26T05:12:58;7.65;;;5.82;;
44254;SDS011;29933;47.226;15.734;2022-08-26T05:15:27;11.25;;;5.53;;
44254;SDS011;29933;47.226;15.734;2022-08-26T05:17:56;9.13;;;4.85;;
44254;SDS011;29933;47.226;15.734;2022-08-26T05:20:28;7.00;;;6.30;;
44254;SDS011;29933;47.226;15.734;2022-08-26T05:23:03;6.75;;;5.45;;
44254;SDS011;29933;47.226;15.734;2022-08-26T05:25:35;9.05;;;6.15;;
44254;SDS011;29933;47.226;15.734;2022-08-26T05:28:12;12.35;;;5.95;;
44254;SDS011;29933;47.226;15.734;2022-08-26T05:30:47;12.25;;;5.88;;
44254;SDS011;29933;47.226;15.734;2022-08-26T05:33:24;10.43;;;5.50;;
44254;SDS011;29933;47.226;15.734;2022-08-26T05:35:54;7.40;;;5.35;;
44254;SDS011;29933;47.226;15.734;2022-08-26T05:38:32;7.50;;;5.53;;
44254;SDS011;29933;47.226;15.734;2022-08-26T05:40:58;7.85;;;6.53;;
44254;SDS011;29933;47.226;15.734;2022-08-26T05:43:25;9.93;;;5.68;;
44254;SDS011;29933;47.226;15.734;2022-08-26T05:46:04;9.85;;;5.47;;
44254;SDS011;29933;47.226;15.734;2022-08-26T05:48:51;9.45;;;6.10;;
44254;SDS011;29933;47.226;15.734;2022-08-26T05:51:24;9.15;;;5.18;;
44254;SDS011;29933;47.226;15.734;2022-08-26T05:54:05;10.27;;;6.15;;
44254;SDS011;29933;47.226;15.734;2022-08-26T05:56:42;11.15;;;6.65;;
44254;SDS011;29933;47.226;15.734;2022-08-26T05:59:21;9.38;;;6.90;;
44254;SDS011;29933;47.226;15.734;2022-08-26T06:01:54;13.25;;;5.05;;
44254;SDS011;29933;47.226;15.734;2022-08-26T06:04:34;9.73;;;6.00;;
44254;SDS011;29933;47.226;15.734;2022-08-26T06:07:00;11.57;;;5.45;;
44254;SDS011;29933;47.226;15.734;2022-08-26T06:10:10;8.55;;;5.75;;
44254;SDS011;29933;47.226;15.734;2022-08-26T06:13:04;8.88;;;6.53;;
44254;SDS011;29933;47.226;15.734;2022-08-26T06:15:30;10.18;;;5.53;;
44254;SDS011;29933;47.226;15.734;2022-08-26T06:17:56;10.15;;;5.38;;
44254;SDS011;29933;47.226;15.734;2022-08-26T06:20:44;7.90;;;5.30;;
44254;SDS011;29933;47.226;15.734;2022-08-26T06:23:12;10.75;;;6.20;;
44254;SDS011;29933;47.226;15.734;2022-08-26T06:25:59;8.43;;;6.25;;
44254;SDS011;29933;47.226;15.734;2022-08-26T06:28:25;10.38;;;5.78;;
44254;SDS011;29933;47.226;15.734;2022-08-26T06:30:52;5.85;;;4.93;;
44254;SDS011;29933;47.226;15.734;2022-08-26T06:36:41;8.93;;;5.75;;
44254;SDS011;29933;47.226;15.734;2022-08-26T06:39:12;10.95;;;5.80;;
44254;SDS011;29933;47.226;15.734;2022-08-26T06:41:59;10.10;;;5.57;;
44254;SDS011;29933;47.226;15.734;2022-08-26T06:44:28;7.28;;;5.22;;
44254;SDS011;29933;47.226;15.734;2022-08-26T06:46:57;10.80;;;5.22;;
44254;SDS011;29933;47.226;15.734;2022-08-26T06:49:32;7.70;;;5.07;;
44254;SDS011;29933;47.226;15.734;2022-08-26T06:52:22;8.60;;;7.18;;
44254;SDS011;29933;47.226;15.734;2022-08-26T06:56:08;6.53;;;5.45;;
44254;SDS011;29933;47.226;15.734;2022-08-26T07:01:54;5.85;;;5.18;;
44254;SDS011;29933;47.226;15.734;2022-08-26T07:04:54;10.88;;;6.20;;
44254;SDS011;29933;47.226;15.734;2022-08-26T07:08:05;7.72;;;4.90;;
44254;SDS011;29933;47.226;15.734;2022-08-26T07:11:36;6.50;;;4.95;;
44254;SDS011;29933;47.226;15.734;2022-08-26T07:14:37;6.70;;;5.07;;
44254;SDS011;29933;47.226;15.734;2022-08-26T07:32:23;8.05;;;5.18;;
44254;SDS011;29933;47.226;15.734;2022-08-26T07:36:07;15.93;;;5.00;;
44254;SDS011;29933;47.226;15.734;2022-08-26T07:38:45;9.35;;;4.57;;
44254;SDS011;29933;47.226;15.734;2022-08-26T07:41:53;12.00;;;5.38;;
44254;SDS011;29933;47.226;15.734;2022-08-26T07:44:56;5.03;;;4.53;;
44254;SDS011;29933;47.226;15.734;2022-08-26T07:47:50;7.13;;;4.32;;
44254;SDS011;29933;47.226;15.734;2022-08-26T07:53:01;8.20;;;4.32;;
44254;SDS011;29933;47.226;15.734;2022-08-26T07:56:22;10.07;;;5.03;;
44254;SDS011;29933;47.226;15.734;2022-08-26T07:59:26;5.60;;;4.57;;
44254;SDS011;29933;47.226;15.734;2022-08-26T08:05:21;6.55;;;4.57;;
44254;SDS011;29933;47.226;15.734;2022-08-26T10:06:31;5.65;;;3.30;;
44254;SDS011;29933;47.226;15.734;2022-08-26T10:09:53;8.15;;;4.65;;
44254;SDS011;29933;47.226;15.734;2022-08-26T10:45:32;8.10;;;3.72;;
44254;SDS011;29933;47.226;15.734;2022-08-26T12:11:05;8.48;;;3.47;;
44254;SDS011;29933;47.226;15.734;2022-08-26T12:25:31;9.05;;;3.25;;
44254;SDS011;29933;47.226;15.734;2022-08-26T12:28:51;8.35;;;3.60;;
44254;SDS011;29933;47.226;15.734;2022-08-26T13:03:57;9.88;;;3.78;;
44254;SDS011;29933;47.226;15.734;2022-08-26T13:06:31;6.90;;;3.95;;
44254;SDS011;29933;47.226;15.734;2022-08-26T13:12:37;6.32;;;4.13;;
44254;SDS011;29933;47.226;15.734;2022-08-26T13:15:47;5.65;;;3.58;;
44254;SDS011;29933;47.226;15.734;2022-08-26T13:21:16;12.68;;;3.85;;
44254;SDS011;29933;47.226;15.734;2022-08-26T13:25:09;7.00;;;4.38;;
44254;SDS011;29933;47.226;15.734;2022-08-26T13:27:49;7.13;;;3.63;;
44254;SDS011;29933;47.226;15.734;2022-08-26T13:46:02;8.55;;;3.38;;
44254;SDS011;29933;47.226;15.734;2022-08-26T13:51:33;6.22;;;3.75;;
44254;SDS011;29933;47.226;15.734;2022-08-26T13:54:35;5.85;;;3.65;;
44254;SDS011;29933;47.226;15.734;2022-08-26T13:57:50;4.40;;;2.97;;
44254;SDS011;29933;47.226;15.734;2022-08-26T14:01:08;9.70;;;3.38;;
44254;SDS011;29933;47.226;15.734;2022-08-26T14:04:49;6.38;;;3.55;;
44254;SDS011;29933;47.226;15.734;2022-08-26T14:18:20;5.28;;;3.67;;
44254;SDS011;29933;47.226;15.734;2022-08-26T14:21:51;10.20;;;3.78;;
44254;SDS011;29933;47.226;15.734;2022-08-26T14:25:28;4.30;;;3.40;;
44254;SDS011;29933;47.226;15.734;2022-08-26T14:28:30;4.82;;;2.40;;
44254;SDS011;29933;47.226;15.734;2022-08-26T17:40:52;5.72;;;3.88;;
44254;SDS011;29933;47.226;15.734;2022-08-26T17:44:30;8.85;;;4.30;;
44254;SDS011;29933;47.226;15.734;2022-08-26T17:47:18;10.25;;;3.65;;
44254;SDS011;29933;47.226;15.734;2022-08-26T17:49:52;8.13;;;3.53;;
44254;SDS011;29933;47.226;15.734;2022-08-26T17:52:40;4.97;;;3.80;;
44254;SDS011;29933;47.226;15.734;2022-08-26T17:55:29;6.60;;;3.88;;
44254;SDS011;29933;47.226;15.734;2022-08-26T17:58:57;8.48;;;3.42;;
44254;SDS011;29933;47.226;15.734;2022-08-26T18:01:43;11.75;;;4.60;;
